Time;durP1;ratioP1;P1;durP2;ratioP2;P2;SDS_P1;SDS_P2;PMS_P1;PMS_P2;Temp;Humidity;BMP_temperature;BMP_pressure;BME280_temperature;BME280_humidity;BME280_pressure;Samples;Min_cycle;Max_cycle;Signal;HPM_P1;HPM_P2
2021/05/15 00:00:42;;;;;;;4.03;1.50;;;11.90;38.10;;;;;;4824688;29;20061;-86
2021/05/15 00:06:30;;;;;;;2.17;1.30;;;11.90;38.30;;;;;;4824727;29;20034;-85
2021/05/15 00:12:18;;;;;;;2.22;1.50;;;12.00;38.60;;;;;;4824772;29;20180;-85
2021/05/15 00:18:07;;;;;;;1.88;1.40;;;12.10;38.80;;;;;;4824718;29;20057;-86
2021/05/15 00:23:55;;;;;;;3.58;1.80;;;12.20;39.00;;;;;;4824629;29;20083;-85
2021/05/15 00:33:39;;;;;;;3.05;1.63;;;12.20;39.00;;;;;;4824784;29;20517;-86
2021/05/15 00:39:28;;;;;;;2.72;1.40;;;12.20;39.10;;;;;;4827239;29;20527;-86
2021/05/15 00:45:25;;;;;;;3.22;1.63;;;12.10;39.30;;;;;;4827973;29;20082;-86
2021/05/15 00:51:13;;;;;;;3.30;1.60;;;12.20;39.50;;;;;;4827659;29;20083;-86
2021/05/15 00:57:02;;;;;;;2.92;1.42;;;12.20;39.60;;;;;;4827570;29;20130;-85
2021/05/15 01:02:51;;;;;;;2.40;1.30;;;12.20;39.70;;;;;;4827442;29;20037;-85
2021/05/15 01:08:44;;;;;;;1.50;1.35;;;12.00;39.40;;;;;;4827562;29;20041;-85
2021/05/15 01:14:34;;;;;;;1.60;1.42;;;11.80;39.50;;;;;;4827257;29;20134;-85
2021/05/15 01:20:24;;;;;;;3.03;1.58;;;11.70;39.80;;;;;;4827141;29;20081;-85
2021/05/15 01:26:15;;;;;;;1.73;1.42;;;11.70;40.10;;;;;;4833331;29;20042;-87
2021/05/15 01:36:09;;;;;;;2.28;1.60;;;11.70;40.20;;;;;;4827176;29;20058;-86
2021/05/15 01:41:58;;;;;;;2.03;1.65;;;11.60;40.30;;;;;;4827011;29;20049;-86
2021/05/15 01:47:50;;;;;;;2.72;1.65;;;11.60;40.50;;;;;;4826690;29;20100;-86
2021/05/15 01:53:46;;;;;;;2.83;1.80;;;11.50;40.50;;;;;;4826934;29;20158;-85
2021/05/15 01:59:34;;;;;;;3.00;1.73;;;11.40;40.70;;;;;;4826359;29;20556;-86
2021/05/15 02:05:23;;;;;;;3.10;1.80;;;11.40;41.00;;;;;;4826781;29;20441;-86
2021/05/15 02:11:15;;;;;;;4.13;2.08;;;11.50;41.30;;;;;;4826573;29;20096;-86
2021/05/15 02:17:07;;;;;;;4.50;1.98;;;11.50;41.30;;;;;;4826257;29;20094;-86
2021/05/15 02:22:56;;;;;;;5.43;2.30;;;11.50;41.50;;;;;;4826301;29;20090;-86
2021/05/15 02:28:49;;;;;;;5.10;2.47;;;11.40;41.60;;;;;;4826056;29;20519;-86
2021/05/15 02:38:37;;;;;;;4.15;1.70;;;11.60;41.90;;;;;;4826218;29;20159;-88
2021/05/15 02:44:26;;;;;;;2.67;1.77;;;11.60;42.20;;;;;;4825870;29;20506;-88
2021/05/15 02:50:18;;;;;;;4.25;1.90;;;11.60;42.30;;;;;;4826040;29;20438;-88
2021/05/15 02:56:07;;;;;;;3.30;1.83;;;11.70;42.50;;;;;;4825994;29;20103;-87
2021/05/15 03:01:55;;;;;;;3.30;1.83;;;11.70;42.60;;;;;;4825758;29;20518;-87
2021/05/15 03:07:43;;;;;;;3.10;1.75;;;11.80;42.80;;;;;;4825535;29;20030;-86
2021/05/15 03:13:32;;;;;;;5.03;2.00;;;11.80;42.80;;;;;;4825636;29;20459;-86
2021/05/15 03:19:25;;;;;;;1.50;1.40;;;11.80;43.00;;;;;;4825284;29;20079;-86
2021/05/15 03:25:15;;;;;;;2.80;1.73;;;11.80;43.10;;;;;;4825507;29;20110;-87
2021/05/15 03:31:05;;;;;;;2.40;1.50;;;11.90;43.30;;;;;;4825514;29;20057;-85
2021/05/15 03:40:54;;;;;;;2.22;1.50;;;12.00;43.50;;;;;;4825049;29;20423;-85
2021/05/15 03:46:43;;;;;;;4.97;1.80;;;12.00;43.60;;;;;;4825227;29;20489;-87
2021/05/15 03:52:31;;;;;;;4.13;2.00;;;12.00;43.80;;;;;;4824870;29;20079;-87
2021/05/15 03:58:21;;;;;;;2.80;1.70;;;12.00;44.00;;;;;;4825066;29;20125;-87
2021/05/15 04:04:09;;;;;;;2.65;1.73;;;12.00;44.10;;;;;;4825054;29;20045;-86
2021/05/15 04:09:58;;;;;;;3.53;1.70;;;12.10;44.30;;;;;;4828469;29;20038;-86
2021/05/15 04:15:56;;;;;;;2.55;1.85;;;12.20;44.50;;;;;;4824946;29;20038;-86
2021/05/15 04:21:44;;;;;;;4.10;1.88;;;12.20;44.60;;;;;;4824579;29;20203;-86
2021/05/15 04:27:36;;;;;;;5.40;2.00;;;12.10;44.70;;;;;;4824869;29;20040;-86
2021/05/15 04:33:25;;;;;;;4.53;2.08;;;12.00;44.80;;;;;;4826229;29;20034;-85
2021/05/15 04:43:14;;;;;;;3.65;2.00;;;12.10;45.10;;;;;;4820156;29;20053;-85
2021/05/15 04:49:03;;;;;;;5.65;2.63;;;12.10;45.50;;;;;;4824397;29;20037;-85
2021/05/15 04:54:55;;;;;;;4.07;1.90;;;12.00;45.30;;;;;;4824485;29;20045;-87
2021/05/15 05:00:43;;;;;;;3.47;2.00;;;11.90;45.50;;;;;;4824135;29;20049;-85
2021/05/15 05:06:31;;;;;;;3.45;2.00;;;11.90;45.80;;;;;;4824090;29;20041;-86
2021/05/15 05:12:20;;;;;;;5.22;2.00;;;11.80;45.60;;;;;;4824215;29;20075;-85
2021/05/15 05:18:29;;;;;;;3.45;1.90;;;11.60;45.70;;;;;;4824040;29;20514;-87
2021/05/15 05:24:19;;;;;;;3.05;1.95;;;11.60;46.00;;;;;;4824222;29;20045;-87
2021/05/15 05:30:08;;;;;;;2.53;1.50;;;11.60;46.10;;;;;;4827224;29;20094;-88
2021/05/15 05:35:59;;;;;;;2.50;1.50;;;11.50;46.10;;;;;;4827142;29;20477;-88
2021/05/15 05:52:47;;;;;;;9.90;4.43;;;11.60;46.60;;;;;;4826862;29;20172;-87
2021/05/15 05:58:35;;;;;;;4.38;1.80;;;11.90;47.10;;;;;;4826833;29;20041;-88
2021/05/15 06:04:27;;;;;;;2.65;1.60;;;12.10;47.10;;;;;;4826489;29;20041;-87
2021/05/15 06:10:15;;;;;;;3.08;1.70;;;12.20;47.20;;;;;;4826321;29;20030;-84
2021/05/15 06:16:08;;;;;;;2.15;1.40;;;12.30;47.10;;;;;;4826330;29;20503;-88
2021/05/15 06:21:55;;;;;;;8.13;1.50;;;12.30;47.20;;;;;;4826860;29;20053;-82
2021/05/15 06:27:43;;;;;;;3.92;1.90;;;12.40;47.40;;;;;;4826423;29;20083;-82
2021/05/15 06:33:32;;;;;;;3.40;1.85;;;12.50;47.40;;;;;;4826451;29;20559;-83
2021/05/15 06:39:46;;;;;;;3.50;1.80;;;12.60;47.50;;;;;;4826185;29;20560;-87
2021/05/15 06:45:35;;;;;;;2.45;1.45;;;12.60;47.60;;;;;;4807956;29;20065;-86
2021/05/15 06:51:26;;;;;;;2.85;1.55;;;12.70;48.00;;;;;;4813931;29;20037;-86
2021/05/15 06:57:14;;;;;;;3.50;1.40;;;13.00;48.50;;;;;;4807450;29;20446;-86
2021/05/15 07:03:18;;;;;;;2.05;1.25;;;13.80;49.50;;;;;;4807396;29;20055;-87
2021/05/15 07:09:07;;;;;;;3.80;1.80;;;14.20;48.80;;;;;;4807429;29;20046;-86
2021/05/15 07:14:56;;;;;;;1.73;1.30;;;14.60;48.90;;;;;;4807463;29;20062;-86
2021/05/15 07:20:44;;;;;;;2.40;1.17;;;15.10;49.10;;;;;;4807408;29;20049;-85
2021/05/15 07:26:32;;;;;;;1.20;0.98;;;15.50;48.50;;;;;;4807080;29;20088;-85
2021/05/15 07:32:22;;;;;;;1.10;1.08;;;15.60;48.10;;;;;;4807073;29;20046;-84
2021/05/15 07:38:11;;;;;;;1.27;0.82;;;15.80;48.20;;;;;;4807039;29;20435;-85
2021/05/15 07:48:00;;;;;;;2.92;1.15;;;15.90;48.30;;;;;;4824585;29;20087;-87
2021/05/15 07:53:53;;;;;;;2.33;1.30;;;16.40;49.00;;;;;;4824829;29;20030;-85
2021/05/15 07:59:42;;;;;;;2.78;1.08;;;16.60;48.70;;;;;;4824767;29;20045;-84
2021/05/15 08:05:31;;;;;;;2.33;1.00;;;16.70;48.10;;;;;;4824974;29;20057;-86
2021/05/15 08:11:19;;;;;;;1.25;1.10;;;16.60;48.10;;;;;;4824673;29;20072;-85
2021/05/15 08:17:08;;;;;;;1.88;1.30;;;16.50;47.70;;;;;;4825045;29;20033;-86
2021/05/15 08:22:56;;;;;;;1.27;1.15;;;16.80;48.90;;;;;;4825682;29;20453;-86
2021/05/15 08:28:49;;;;;;;1.75;1.30;;;17.40;49.70;;;;;;4824522;29;20038;-86
2021/05/15 08:34:38;;;;;;;1.45;1.25;;;17.90;49.10;;;;;;4824619;29;20037;-85
2021/05/15 08:40:37;;;;;;;2.95;1.33;;;18.50;49.00;;;;;;4824480;29;20073;-93
2021/05/15 08:50:29;;;;;;;1.80;1.17;;;19.10;48.60;;;;;;4825410;29;20088;-86
2021/05/15 08:56:18;;;;;;;3.30;1.33;;;19.00;48.10;;;;;;4825248;29;20052;-85
2021/05/15 09:02:11;;;;;;;1.20;1.00;;;19.10;47.90;;;;;;4827778;29;20103;-85
2021/05/15 09:08:03;;;;;;;0.95;0.88;;;19.40;48.00;;;;;;4827581;29;20117;-85
2021/05/15 09:13:55;;;;;;;1.45;0.82;;;19.30;47.60;;;;;;4827554;29;20037;-85
2021/05/15 09:19:52;;;;;;;1.23;0.98;;;19.50;47.70;;;;;;4827031;29;20130;-86
2021/05/15 09:25:43;;;;;;;1.85;1.02;;;19.40;47.00;;;;;;4827381;29;20049;-84
2021/05/15 09:31:42;;;;;;;0.90;0.90;;;19.60;47.00;;;;;;4832862;29;20060;-85
2021/05/15 09:37:43;;;;;;;2.03;0.90;;;19.20;45.90;;;;;;4827223;29;20033;-86
2021/05/15 09:43:32;;;;;;;1.23;1.13;;;19.40;47.30;;;;;;4826857;29;20041;-85
2021/05/15 09:53:23;;;;;;;2.22;1.10;;;19.80;46.20;;;;;;4826748;29;20049;-86
2021/05/15 09:59:12;;;;;;;1.85;1.10;;;19.60;47.00;;;;;;4826317;29;20118;-86
2021/05/15 10:05:25;;;;;;;1.10;1.10;;;19.80;46.10;;;;;;4826799;29;20396;-85
2021/05/15 10:11:13;;;;;;;1.10;0.80;;;20.00;46.80;;;;;;4826045;29;20033;-85
2021/05/15 10:17:03;;;;;;;8.43;3.95;;;20.40;46.80;;;;;;4826703;29;20057;-85
2021/05/15 10:22:51;;;;;;;1.67;1.17;;;20.90;47.20;;;;;;4826525;29;20083;-85
2021/05/15 10:28:39;;;;;;;1.27;1.10;;;21.50;46.60;;;;;;4826860;29;20045;-85
2021/05/15 10:34:34;;;;;;;1.25;1.00;;;21.70;46.50;;;;;;4826356;29;20045;-85
2021/05/15 10:40:25;;;;;;;1.60;0.70;;;21.90;45.80;;;;;;4826911;29;20437;-83
2021/05/15 10:46:26;;;;;;;0.68;0.68;;;21.60;44.80;;;;;;4825915;29;20086;-83
2021/05/15 10:56:29;;;;;;;1.67;0.95;;;21.70;44.90;;;;;;4826265;29;20575;-84
2021/05/15 11:02:18;;;;;;;2.95;1.08;;;21.40;44.50;;;;;;4825681;29;20061;-88
2021/05/15 11:08:20;;;;;;;0.88;0.80;;;21.40;44.50;;;;;;4825703;29;20130;-84
2021/05/15 11:14:29;;;;;;;0.95;0.95;;;21.40;45.20;;;;;;4825672;29;20183;-84
2021/05/15 11:20:19;;;;;;;0.70;0.70;;;22.80;48.10;;;;;;4825445;29;20050;-84
2021/05/15 11:26:12;;;;;;;2.08;1.10;;;23.10;45.30;;;;;;4825619;29;20057;-85
2021/05/15 11:32:15;;;;;;;0.80;0.80;;;23.30;47.70;;;;;;4825227;29;20614;-85
2021/05/15 11:38:15;;;;;;;1.13;0.90;;;24.70;45.60;;;;;;4825295;29;20045;-84
2021/05/15 11:44:03;;;;;;;0.77;0.77;;;25.80;48.20;;;;;;4825186;29;20059;-85
2021/05/15 11:50:01;;;;;;;1.00;0.90;;;27.90;48.50;;;;;;4825264;29;20126;-83
2021/05/15 11:55:53;;;;;;;1.23;0.80;;;28.00;43.70;;;;;;4825220;29;20183;-83
2021/05/15 12:01:42;;;;;;;1.00;1.00;;;28.00;46.60;;;;;;4824864;29;20536;-84
2021/05/15 12:07:31;;;;;;;5.55;2.63;;;30.20;48.40;;;;;;4824629;29;20122;-85
2021/05/15 12:13:21;;;;;;;1.40;1.30;;;33.10;46.30;;;;;;4825164;29;20053;-85
2021/05/15 12:19:20;;;;;;;0.88;0.70;;;33.90;46.80;;;;;;4824721;29;20453;-85
2021/05/15 12:25:10;;;;;;;1.02;0.93;;;32.80;40.70;;;;;;4824749;29;20065;-85
2021/05/15 12:31:00;;;;;;;0.75;0.75;;;32.40;44.70;;;;;;4824878;29;20384;-86
2021/05/15 12:36:49;;;;;;;0.93;0.93;;;32.60;41.50;;;;;;4828351;29;20118;-85
2021/05/15 12:42:37;;;;;;;2.75;1.70;;;30.60;38.00;;;;;;4828092;29;20045;-84
2021/05/15 12:48:41;;;;;;;0.80;0.75;;;28.70;37.00;;;;;;4827947;29;20052;-85
2021/05/15 12:58:31;;;;;;;10.77;8.25;;;26.70;37.50;;;;;;4827710;29;20547;-84
2021/05/15 13:04:26;;;;;;;1.30;0.90;;;25.90;36.00;;;;;;4827547;29;20053;-85
2021/05/15 13:10:15;;;;;;;0.68;0.68;;;23.80;34.50;;;;;;4827366;29;20263;-85
2021/05/15 13:16:05;;;;;;;0.85;0.77;;;22.00;35.00;;;;;;4827330;29;20026;-84
2021/05/15 13:21:54;;;;;;;8.35;4.53;;;21.20;36.70;;;;;;4827483;29;20057;-84
2021/05/15 13:27:42;;;;;;;0.80;0.80;;;22.00;38.50;;;;;;4827289;29;20396;-84
2021/05/15 13:33:31;;;;;;;0.80;0.80;;;22.40;37.40;;;;;;4827021;29;20069;-83
2021/05/15 13:39:20;;;;;;;5.03;1.77;;;22.60;37.20;;;;;;4827201;29;20045;-84
2021/05/15 13:45:09;;;;;;;1.42;1.30;;;22.20;37.00;;;;;;4826480;29;20425;-83
2021/05/15 13:52:52;;;;;;;1.23;1.13;;;22.00;38.60;;;;;;5152656;27;20080;-84
2021/05/15 13:58:42;;;;;;;1.35;1.10;;;26.80;47.40;;;;;;5152769;27;20104;-85
2021/05/15 14:04:32;;;;;;;1.20;1.20;;;31.90;47.20;;;;;;5152626;27;20083;-84
2021/05/15 14:10:20;;;;;;;1.38;1.20;;;35.10;45.80;;;;;;5152503;27;20022;-84
2021/05/15 14:16:09;;;;;;;0.90;0.90;;;35.00;41.00;;;;;;5152431;27;20050;-85
2021/05/15 14:21:57;;;;;;;0.60;0.60;;;35.40;39.00;;;;;;5152189;27;20053;-84
2021/05/15 14:27:46;;;;;;;0.80;0.80;;;33.40;36.90;;;;;;5152250;27;20408;-84
2021/05/15 14:33:34;;;;;;;0.60;0.60;;;32.10;37.20;;;;;;5152167;27;20065;-84
2021/05/15 14:39:23;;;;;;;0.80;0.80;;;31.70;35.90;;;;;;5151900;27;20072;-84
2021/05/15 14:45:12;;;;;;;0.98;0.75;;;30.50;34.90;;;;;;5151867;27;20048;-84
2021/05/15 14:55:01;;;;;;;0.82;0.80;;;28.00;33.80;;;;;;5151856;27;20049;-85
2021/05/15 15:00:49;;;;;;;0.70;0.70;;;27.10;35.40;;;;;;5137246;27;20033;-85
2021/05/15 15:06:38;;;;;;;0.73;0.73;;;27.10;34.60;;;;;;5137753;27;20123;-84
2021/05/15 15:12:26;;;;;;;1.35;1.17;;;27.80;35.90;;;;;;5137742;27;20091;-85
2021/05/15 15:18:15;;;;;;;4.35;1.23;;;28.30;34.60;;;;;;5137076;27;20136;-85
2021/05/15 15:24:04;;;;;;;0.75;0.75;;;27.10;32.50;;;;;;5137404;27;20030;-85
2021/05/15 15:29:53;;;;;;;2.45;1.00;;;25.50;31.90;;;;;;5137215;27;20432;-85
2021/05/15 15:35:41;;;;;;;1.10;1.00;;;24.20;31.80;;;;;;5137182;27;20022;-82
2021/05/15 15:41:29;;;;;;;1.00;0.90;;;23.70;33.20;;;;;;5137187;27;20030;-84
2021/05/15 15:47:18;;;;;;;1.80;1.20;;;24.10;35.50;;;;;;5136929;27;20100;-83
2021/05/15 15:57:00;;;;;;;1.48;0.75;;;25.20;33.40;;;;;;5136686;27;20050;-83
2021/05/15 16:02:50;;;;;;;1.75;1.20;;;23.90;31.90;;;;;;5136278;27;20072;-82
2021/05/15 16:08:39;;;;;;;2.10;1.20;;;22.60;32.00;;;;;;5136202;27;20041;-84
2021/05/15 16:14:27;;;;;;;4.10;1.80;;;21.90;32.80;;;;;;5136422;27;20117;-83
2021/05/15 16:20:17;;;;;;;0.93;0.80;;;21.70;33.20;;;;;;5136220;27;20034;-82
2021/05/15 16:26:06;;;;;;;2.78;1.25;;;21.00;32.40;;;;;;5135892;27;20031;-80
2021/05/15 16:31:55;;;;;;;3.03;1.50;;;20.70;33.10;;;;;;5135861;27;20080;-83
2021/05/15 16:37:44;;;;;;;1.10;1.00;;;21.00;34.70;;;;;;5135486;27;20046;-84
2021/05/15 16:43:34;;;;;;;1.33;1.17;;;22.10;35.50;;;;;;5135561;27;20391;-84
2021/05/15 16:49:22;;;;;;;2.05;1.05;;;22.10;34.30;;;;;;5135698;27;20049;-83
2021/05/15 16:59:04;;;;;;;1.08;0.98;;;22.10;34.30;;;;;;5135359;27;20555;-83
2021/05/15 17:04:51;;;;;;;1.55;0.98;;;21.90;34.40;;;;;;5135413;27;20034;-82
2021/05/15 17:10:40;;;;;;;3.95;1.25;;;21.30;34.20;;;;;;5135424;27;20062;-82
2021/05/15 17:16:28;;;;;;;0.90;0.90;;;20.90;34.60;;;;;;5135203;27;20544;-84
2021/05/15 17:22:17;;;;;;;2.42;1.15;;;20.40;34.70;;;;;;5134633;27;20025;-84
2021/05/15 17:28:06;;;;;;;0.80;0.80;;;20.20;35.30;;;;;;5134852;27;20029;-83
2021/05/15 17:33:55;;;;;;;4.93;1.90;;;19.80;35.10;;;;;;5137594;27;20030;-83
2021/05/15 17:39:44;;;;;;;9.30;4.22;;;19.60;35.50;;;;;;5134880;27;20054;-82
2021/05/15 17:45:32;;;;;;;2.38;1.42;;;19.20;35.60;;;;;;5134840;28;20058;-82
2021/05/15 17:51:22;;;;;;;2.13;1.35;;;18.90;35.80;;;;;;5134454;28;20030;-83
2021/05/15 18:01:07;;;;;;;2.30;1.80;;;18.60;36.00;;;;;;5134753;28;20038;-85
2021/05/15 18:06:56;;;;;;;2.03;1.50;;;18.40;36.40;;;;;;5114044;28;20035;-84
2021/05/15 18:12:44;;;;;;;2.50;1.38;;;18.20;36.30;;;;;;5114140;28;20090;-84
2021/05/15 18:18:32;;;;;;;3.80;1.55;;;18.00;36.50;;;;;;5113617;28;20089;-84
2021/05/15 18:24:20;;;;;;;3.50;1.90;;;17.90;36.90;;;;;;5113977;28;20039;-82
2021/05/15 18:30:10;;;;;;;5.95;2.45;;;17.80;37.00;;;;;;5113612;28;20077;-82
2021/05/15 18:35:58;;;;;;;5.32;2.40;;;17.60;37.00;;;;;;5117637;28;20042;-83
2021/05/15 18:41:49;;;;;;;3.75;1.90;;;17.40;37.30;;;;;;5117440;28;20481;-84
2021/05/15 18:47:40;;;;;;;2.83;1.60;;;17.20;37.60;;;;;;5117399;28;20141;-85
2021/05/15 18:53:28;;;;;;;4.18;2.08;;;17.10;37.70;;;;;;5117712;28;20100;-84
2021/05/15 19:03:12;;;;;;;2.30;1.08;;;15.70;35.20;;;;;;5117004;28;20122;-87
2021/05/15 19:27:25;;;;;;;4.38;1.55;;;11.70;51.40;;;;;;5016268;28;20037;-87
2021/05/15 19:33:14;;;;;;;3.58;1.83;;;11.60;54.30;;;;;;5016145;28;20118;-87
2021/05/15 19:39:04;;;;;;;3.80;2.03;;;11.80;56.90;;;;;;5015919;28;20040;-87
2021/05/15 19:44:57;;;;;;;2.58;1.70;;;11.80;58.80;;;;;;5016240;28;20056;-86
2021/05/15 19:51:01;;;;;;;5.13;1.95;;;11.70;60.80;;;;;;5015668;28;20037;-86
2021/05/15 19:56:54;;;;;;;4.40;1.90;;;11.70;63.10;;;;;;5015910;28;20045;-87
2021/05/15 20:03:08;;;;;;;4.57;2.10;;;11.80;64.90;;;;;;5015550;28;20037;-87
2021/05/15 20:09:07;;;;;;;4.65;2.25;;;11.70;66.40;;;;;;5015505;28;20025;-86
2021/05/15 20:15:04;;;;;;;4.00;2.10;;;11.70;68.00;;;;;;5015833;28;20041;-86
2021/05/15 20:20:55;;;;;;;4.20;2.17;;;11.60;69.30;;;;;;5017950;28;20068;-88
2021/05/15 20:26:45;;;;;;;5.40;2.13;;;11.60;70.40;;;;;;5015612;28;20540;-90
2021/05/15 20:32:34;;;;;;;3.45;2.00;;;11.50;71.50;;;;;;5015226;28;20057;-87
2021/05/15 20:38:24;;;;;;;4.15;1.90;;;11.40;72.50;;;;;;5014942;28;20053;-90
2021/05/15 20:44:13;;;;;;;3.33;2.00;;;11.30;73.50;;;;;;5014933;28;20536;-88
2021/05/15 20:50:02;;;;;;;2.65;1.80;;;11.30;74.00;;;;;;5014752;28;20037;-86
2021/05/15 20:55:50;;;;;;;2.70;1.80;;;11.20;75.10;;;;;;5014537;28;20036;-89
2021/05/15 21:01:40;;;;;;;3.22;2.00;;;11.20;75.80;;;;;;5014769;28;20104;-88
2021/05/15 21:07:29;;;;;;;3.13;1.85;;;11.10;76.40;;;;;;5014214;28;20080;-87
2021/05/15 21:13:19;;;;;;;2.40;1.60;;;11.10;77.00;;;;;;5014573;28;20041;-89
2021/05/15 21:19:08;;;;;;;3.85;1.75;;;11.00;77.40;;;;;;5014194;28;20386;-89
2021/05/15 21:28:58;;;;;;;2.30;1.55;;;10.70;77.90;;;;;;5014672;28;20437;-89
2021/05/15 21:34:47;;;;;;;2.03;1.50;;;10.50;78.60;;;;;;5014642;28;20041;-90
2021/05/15 21:40:37;;;;;;;2.85;1.70;;;10.50;79.20;;;;;;5016684;28;20052;-88
2021/05/15 21:46:30;;;;;;;2.70;1.50;;;10.40;79.70;;;;;;5014831;28;20113;-87
2021/05/15 21:52:19;;;;;;;2.05;1.50;;;10.30;80.20;;;;;;5016430;28;20036;-88
2021/05/15 21:58:08;;;;;;;1.77;1.25;;;10.30;80.50;;;;;;5016411;28;20132;-89
2021/05/15 22:03:59;;;;;;;2.50;1.35;;;10.20;80.80;;;;;;5014337;28;20502;-89
2021/05/15 22:09:48;;;;;;;3.17;1.70;;;10.10;81.20;;;;;;5015880;28;20128;-88
2021/05/15 22:15:38;;;;;;;1.52;1.40;;;10.00;81.50;;;;;;5017529;28;20509;-88
2021/05/15 22:21:28;;;;;;;2.25;1.60;;;9.90;81.80;;;;;;5017389;28;20434;-87
2021/05/15 22:31:18;;;;;;;3.42;1.92;;;9.90;82.50;;;;;;5017662;28;20064;-88
2021/05/15 22:37:07;;;;;;;2.20;1.55;;;9.80;83.10;;;;;;5017281;28;20125;-87
2021/05/15 22:43:01;;;;;;;3.38;1.63;;;9.80;83.30;;;;;;5017220;28;20033;-88
2021/05/15 22:48:49;;;;;;;1.65;1.30;;;9.90;83.70;;;;;;5016915;28;20104;-87
2021/05/15 22:54:38;;;;;;;3.45;1.80;;;9.90;83.90;;;;;;5017091;28;20037;-87
2021/05/15 23:00:27;;;;;;;1.92;1.50;;;9.90;83.90;;;;;;5017085;28;20509;-89
2021/05/15 23:06:17;;;;;;;2.22;1.60;;;9.80;84.20;;;;;;5016744;28;20394;-88
2021/05/15 23:12:05;;;;;;;2.83;1.70;;;9.70;84.20;;;;;;5016774;28;20529;-88
2021/05/15 23:17:58;;;;;;;4.05;1.90;;;9.60;84.50;;;;;;5016438;28;20041;-87
2021/05/15 23:23:47;;;;;;;3.38;1.55;;;9.60;85.00;;;;;;5016710;28;20041;-90
2021/05/15 23:33:35;;;;;;;2.78;1.88;;;9.60;85.30;;;;;;5016382;28;20037;-86
2021/05/15 23:39:23;;;;;;;2.60;1.67;;;9.50;85.50;;;;;;5015920;28;20064;-88
2021/05/15 23:45:15;;;;;;;2.25;1.52;;;9.50;85.70;;;;;;5016066;28;20052;-89
2021/05/15 23:51:04;;;;;;;1.58;1.40;;;9.50;86.30;;;;;;5015805;28;20049;-88
2021/05/15 23:56:53;;;;;;;5.13;1.58;;;9.60;86.80;;;;;;5015837;28;20092;-88
